Time;durP1;ratioP1;P1;durP2;ratioP2;P2;SDS_P1;SDS_P2;PMS_P1;PMS_P2;Temp;Humidity;BMP_temperature;BMP_pressure;BME280_temperature;BME280_humidity;BME280_pressure;Samples;Min_cycle;Max_cycle;Signal;HPM_P1;HPM_P2
2022/07/12 00:00:52;;;;;;;0.60;0.57;;;21.40;60.30;;;;;;5011760;28;20176;-57
2022/07/12 00:03:18;;;;;;;0.93;0.70;;;21.40;60.30;;;;;;5011408;28;20285;-58
2022/07/12 00:05:43;;;;;;;1.45;0.80;;;21.40;60.30;;;;;;5011851;28;20698;-58
2022/07/12 00:08:09;;;;;;;0.60;0.60;;;21.40;60.40;;;;;;5011307;28;20200;-59
2022/07/12 00:10:34;;;;;;;0.47;0.47;;;21.40;60.30;;;;;;5012060;28;20176;-58
2022/07/12 00:13:00;;;;;;;0.55;0.50;;;21.40;60.30;;;;;;5011733;28;20186;-58
2022/07/12 00:15:25;;;;;;;0.95;0.60;;;21.40;60.30;;;;;;5011562;28;20299;-59
2022/07/12 00:17:51;;;;;;;0.77;0.60;;;21.40;60.30;;;;;;5014490;28;20195;-59
2022/07/12 00:20:17;;;;;;;0.70;0.70;;;21.40;60.30;;;;;;5016031;28;20211;-59
2022/07/12 00:22:42;;;;;;;1.45;0.90;;;21.40;60.30;;;;;;5015021;28;20294;-58
2022/07/12 00:25:08;;;;;;;0.60;0.60;;;21.40;60.30;;;;;;5015698;28;20164;-58
2022/07/12 00:27:34;;;;;;;0.63;0.63;;;21.40;60.30;;;;;;5015766;28;20180;-57
2022/07/12 00:29:59;;;;;;;0.55;0.55;;;21.40;60.30;;;;;;5015028;28;20173;-59
2022/07/12 00:32:28;;;;;;;0.60;0.60;;;21.40;60.30;;;;;;5015967;28;20259;-59
2022/07/12 00:34:53;;;;;;;0.60;0.60;;;21.40;60.30;;;;;;5014591;28;20192;-58
2022/07/12 00:37:20;;;;;;;0.60;0.60;;;21.40;60.30;;;;;;5014967;28;20195;-59
2022/07/12 00:39:45;;;;;;;0.70;0.70;;;21.40;60.30;;;;;;5015296;28;20547;-59
2022/07/12 00:42:10;;;;;;;0.50;0.50;;;21.40;60.30;;;;;;5015583;28;20200;-58
2022/07/12 00:44:36;;;;;;;0.80;0.80;;;21.30;60.20;;;;;;5014703;28;20176;-57
2022/07/12 00:47:02;;;;;;;0.50;0.50;;;21.40;60.30;;;;;;5015198;28;20173;-56
2022/07/12 00:49:27;;;;;;;0.60;0.60;;;21.30;60.20;;;;;;5015595;28;20177;-58
2022/07/12 00:51:54;;;;;;;1.42;0.80;;;21.40;60.20;;;;;;5014422;28;20260;-54
2022/07/12 00:54:19;;;;;;;0.90;0.90;;;21.30;60.20;;;;;;5015284;28;20211;-55
2022/07/12 00:56:45;;;;;;;0.88;0.88;;;21.40;60.30;;;;;;5015362;28;20180;-57
2022/07/12 00:59:11;;;;;;;0.77;0.70;;;21.30;60.10;;;;;;4980910;28;20180;-59
2022/07/12 01:01:36;;;;;;;1.23;0.70;;;21.30;60.10;;;;;;5015447;28;20256;-54
2022/07/12 01:04:02;;;;;;;0.77;0.70;;;21.30;60.10;;;;;;4997415;28;20232;-57
2022/07/12 01:06:28;;;;;;;0.60;0.60;;;21.30;60.10;;;;;;5014351;28;20512;-57
2022/07/12 01:08:53;;;;;;;0.60;0.60;;;21.30;60.10;;;;;;5014990;28;20573;-57
2022/07/12 01:11:19;;;;;;;1.30;0.70;;;21.30;60.10;;;;;;4997274;28;20581;-58
2022/07/12 01:13:47;;;;;;;0.70;0.70;;;21.30;60.10;;;;;;4996912;28;20176;-57
2022/07/12 01:16:14;;;;;;;1.33;0.70;;;21.30;60.10;;;;;;4997361;28;20566;-57
2022/07/12 01:18:40;;;;;;;1.20;1.02;;;21.30;60.10;;;;;;4996790;28;20212;-57
2022/07/12 01:21:05;;;;;;;0.70;0.70;;;21.30;60.10;;;;;;5014760;28;20678;-59
2022/07/12 01:23:31;;;;;;;0.93;0.70;;;21.30;60.10;;;;;;4997113;28;20671;-58
2022/07/12 01:25:56;;;;;;;1.10;0.80;;;21.30;60.10;;;;;;5013980;28;20255;-54
2022/07/12 01:28:22;;;;;;;0.55;0.55;;;21.30;60.10;;;;;;5014682;28;20173;-57
2022/07/12 01:30:48;;;;;;;0.70;0.70;;;21.30;60.10;;;;;;5014563;28;20180;-56
2022/07/12 01:33:14;;;;;;;0.88;0.88;;;21.30;60.10;;;;;;5014008;28;20173;-58
2022/07/12 01:35:39;;;;;;;0.75;0.70;;;21.30;60.10;;;;;;4996968;28;20706;-57
2022/07/12 01:38:05;;;;;;;0.88;0.88;;;21.30;60.00;;;;;;4996883;28;20212;-58
2022/07/12 01:40:31;;;;;;;0.98;0.80;;;21.30;60.00;;;;;;5013988;28;20231;-59
2022/07/12 01:42:57;;;;;;;0.95;0.60;;;21.30;60.00;;;;;;5014090;28;20427;-58
2022/07/12 01:45:22;;;;;;;1.58;0.93;;;21.30;60.00;;;;;;4997065;28;20169;-58
2022/07/12 01:47:48;;;;;;;0.60;0.60;;;21.30;60.00;;;;;;5013542;28;20222;-55
2022/07/12 01:50:14;;;;;;;0.45;0.45;;;21.30;60.00;;;;;;5014356;28;20268;-56
2022/07/12 01:52:40;;;;;;;0.60;0.60;;;21.30;60.00;;;;;;5014072;28;20180;-55
2022/07/12 01:55:06;;;;;;;0.70;0.60;;;21.20;60.00;;;;;;5013352;28;20235;-57
2022/07/12 01:57:32;;;;;;;0.95;0.60;;;21.20;60.00;;;;;;5014101;28;20661;-58
2022/07/12 01:59:58;;;;;;;0.55;0.55;;;21.30;60.00;;;;;;5013890;28;20181;-55
2022/07/12 02:02:26;;;;;;;0.85;0.60;;;21.20;60.00;;;;;;5013681;28;20204;-55
2022/07/12 02:04:51;;;;;;;0.90;0.90;;;21.30;60.00;;;;;;5013811;28;20235;-56
2022/07/12 02:07:17;;;;;;;0.73;0.73;;;21.20;60.00;;;;;;4996209;28;20539;-58
2022/07/12 02:09:42;;;;;;;0.80;0.80;;;21.20;60.00;;;;;;5013065;28;20181;-56
2022/07/12 02:12:08;;;;;;;0.95;0.90;;;21.20;60.00;;;;;;5014047;28;20173;-57
2022/07/12 02:14:34;;;;;;;1.83;0.70;;;21.20;60.00;;;;;;5014008;28;20172;-58
2022/07/12 02:16:59;;;;;;;1.15;0.98;;;21.20;60.00;;;;;;5012973;28;20187;-57
2022/07/12 02:19:28;;;;;;;0.70;0.70;;;21.20;60.00;;;;;;5014077;28;20195;-58
2022/07/12 02:21:53;;;;;;;0.80;0.80;;;21.20;60.00;;;;;;5012596;28;20631;-57
2022/07/12 02:24:19;;;;;;;0.70;0.70;;;21.20;60.00;;;;;;5013984;28;20212;-57
2022/07/12 02:26:44;;;;;;;1.55;0.80;;;21.20;59.90;;;;;;5013694;28;20742;-56
2022/07/12 02:29:11;;;;;;;1.58;0.90;;;21.20;59.90;;;;;;5013091;28;20681;-58
2022/07/12 02:31:36;;;;;;;0.85;0.70;;;21.20;60.00;;;;;;5013859;28;20223;-58
2022/07/12 02:34:02;;;;;;;0.85;0.75;;;21.20;59.90;;;;;;5013491;28;20542;-58
2022/07/12 02:36:27;;;;;;;0.80;0.70;;;21.20;59.90;;;;;;5012818;28;20311;-58
2022/07/12 02:38:53;;;;;;;0.65;0.65;;;21.20;59.90;;;;;;5013300;28;20513;-59
2022/07/12 02:41:18;;;;;;;1.75;0.75;;;21.20;59.90;;;;;;5013031;28;20180;-59
2022/07/12 02:43:44;;;;;;;0.55;0.52;;;21.20;59.90;;;;;;5012452;28;20270;-57
2022/07/12 02:46:10;;;;;;;0.70;0.70;;;21.20;59.90;;;;;;5013329;28;20604;-57
2022/07/12 02:48:36;;;;;;;0.77;0.77;;;21.10;59.90;;;;;;5013321;28;20189;-57
2022/07/12 02:51:02;;;;;;;0.73;0.73;;;21.20;59.90;;;;;;5012267;28;20231;-56
2022/07/12 02:53:28;;;;;;;0.73;0.60;;;21.20;59.90;;;;;;5013248;28;20658;-58
2022/07/12 02:55:53;;;;;;;0.70;0.70;;;21.10;59.80;;;;;;5013097;28;20259;-57
2022/07/12 02:58:19;;;;;;;0.77;0.60;;;21.10;59.80;;;;;;5012303;28;20658;-55
2022/07/12 03:00:44;;;;;;;1.33;0.50;;;21.10;59.90;;;;;;5012830;28;20183;-53
2022/07/12 03:03:11;;;;;;;0.90;0.90;;;21.10;59.80;;;;;;5012868;28;20306;-58
2022/07/12 03:05:36;;;;;;;0.73;0.70;;;21.10;59.80;;;;;;5011467;28;20235;-56
2022/07/12 03:08:06;;;;;;;0.82;0.70;;;21.10;59.80;;;;;;5012022;28;20180;-59
2022/07/12 03:10:31;;;;;;;1.67;0.75;;;21.10;59.80;;;;;;5012236;28;20586;-59
2022/07/12 03:12:57;;;;;;;0.50;0.50;;;21.10;59.80;;;;;;5011149;28;20212;-59
2022/07/12 03:15:22;;;;;;;0.57;0.50;;;21.10;59.80;;;;;;5012082;28;20184;-58
2022/07/12 03:17:48;;;;;;;2.60;0.80;;;21.10;59.70;;;;;;5011995;28;20176;-57
2022/07/12 03:20:14;;;;;;;1.73;0.80;;;21.10;59.70;;;;;;5011059;28;20627;-59
2022/07/12 03:22:48;;;;;;;0.85;0.85;;;21.10;59.70;;;;;;5012112;28;20218;-56
2022/07/12 03:25:14;;;;;;;1.65;0.82;;;21.10;59.70;;;;;;5011372;28;20188;-57
2022/07/12 03:27:40;;;;;;;0.73;0.73;;;21.10;59.70;;;;;;5011924;28;20361;-57
2022/07/12 03:30:05;;;;;;;0.77;0.77;;;21.10;59.80;;;;;;5011771;28;20242;-55
2022/07/12 03:32:31;;;;;;;1.52;0.60;;;21.10;59.70;;;;;;5010928;28;20172;-57
2022/07/12 03:34:56;;;;;;;1.20;0.70;;;21.10;59.70;;;;;;5011503;28;20184;-56
2022/07/12 03:37:22;;;;;;;0.60;0.60;;;21.10;59.70;;;;;;5011728;28;20627;-58
2022/07/12 03:39:47;;;;;;;0.80;0.80;;;21.10;59.70;;;;;;5010972;28;20184;-57
2022/07/12 03:42:13;;;;;;;0.82;0.82;;;21.10;59.70;;;;;;5011796;28;20176;-57
2022/07/12 03:44:39;;;;;;;0.88;0.75;;;21.10;60.00;;;;;;5011759;28;20188;-57
2022/07/12 03:47:04;;;;;;;0.60;0.60;;;21.10;59.70;;;;;;5010929;28;20198;-53
2022/07/12 03:49:30;;;;;;;0.77;0.77;;;21.10;59.70;;;;;;5011672;28;20206;-58
2022/07/12 03:51:55;;;;;;;0.65;0.65;;;21.00;59.60;;;;;;5010305;28;20263;-55
2022/07/12 03:54:21;;;;;;;0.70;0.70;;;21.00;59.60;;;;;;5011404;28;20207;-58
2022/07/12 03:59:30;;;;;;;0.85;0.65;;;21.10;59.60;;;;;;5011431;28;20183;-58
2022/07/12 04:01:59;;;;;;;0.70;0.70;;;21.10;59.60;;;;;;5010389;28;20266;-56
2022/07/12 04:04:25;;;;;;;0.75;0.73;;;21.00;59.60;;;;;;4975916;28;1032683;-57
2022/07/12 04:06:51;;;;;;;1.50;0.90;;;21.00;59.50;;;;;;5011993;28;20212;-57
2022/07/12 04:09:16;;;;;;;0.60;0.60;;;21.00;59.50;;;;;;5011390;28;20219;-59
2022/07/12 04:11:45;;;;;;;0.63;0.57;;;21.00;59.50;;;;;;5012067;28;20541;-58
2022/07/12 04:14:10;;;;;;;0.68;0.65;;;21.00;60.20;;;;;;5011870;28;20177;-58
2022/07/12 04:16:36;;;;;;;0.70;0.70;;;21.10;59.50;;;;;;5011230;28;20646;-58
2022/07/12 04:19:01;;;;;;;0.65;0.65;;;21.10;59.50;;;;;;5011816;28;20180;-58
2022/07/12 04:21:27;;;;;;;0.85;0.77;;;21.00;59.50;;;;;;5011266;28;20176;-58
2022/07/12 04:23:52;;;;;;;1.02;0.70;;;21.10;59.50;;;;;;5011751;28;20215;-55
2022/07/12 04:26:18;;;;;;;0.65;0.65;;;21.10;60.20;;;;;;5012089;28;20177;-57
2022/07/12 04:28:43;;;;;;;0.95;0.82;;;21.00;59.50;;;;;;5011015;28;20612;-58
2022/07/12 04:31:12;;;;;;;0.65;0.65;;;21.00;59.50;;;;;;5011959;28;20180;-58
2022/07/12 04:33:37;;;;;;;0.77;0.70;;;21.10;59.50;;;;;;5012201;28;20168;-58
2022/07/12 04:36:03;;;;;;;0.70;0.70;;;21.00;59.50;;;;;;5011375;28;20231;-58
2022/07/12 04:38:28;;;;;;;0.70;0.70;;;21.10;59.50;;;;;;5012218;28;20188;-58
2022/07/12 04:40:54;;;;;;;0.68;0.68;;;21.00;59.40;;;;;;5011595;28;20583;-57
2022/07/12 04:43:19;;;;;;;0.60;0.52;;;21.10;59.50;;;;;;5011106;28;20222;-59
2022/07/12 04:45:45;;;;;;;0.75;0.70;;;21.10;59.50;;;;;;5011574;28;20211;-57
2022/07/12 04:48:11;;;;;;;1.92;0.90;;;21.00;59.40;;;;;;5011867;28;20185;-61
2022/07/12 04:50:36;;;;;;;1.27;0.77;;;21.10;59.40;;;;;;5011201;28;20188;-58
2022/07/12 04:53:02;;;;;;;0.70;0.70;;;21.10;59.40;;;;;;5011792;28;20206;-56
2022/07/12 04:55:28;;;;;;;0.70;0.70;;;21.10;59.40;;;;;;5011744;28;20169;-58
2022/07/12 04:57:53;;;;;;;0.60;0.60;;;21.00;59.40;;;;;;5010824;28;20176;-54
2022/07/12 05:00:19;;;;;;;1.13;0.80;;;21.10;59.40;;;;;;5011612;28;20180;-57
2022/07/12 05:02:44;;;;;;;1.48;0.80;;;21.10;59.40;;;;;;5012182;28;20340;-56
2022/07/12 05:05:10;;;;;;;1.00;1.00;;;21.10;59.40;;;;;;5014261;28;20324;-58
2022/07/12 05:07:35;;;;;;;0.70;0.70;;;21.10;59.40;;;;;;5015112;28;20588;-57
2022/07/12 05:10:01;;;;;;;1.63;0.85;;;21.10;59.40;;;;;;5014973;28;20252;-58
2022/07/12 05:12:26;;;;;;;0.90;0.90;;;21.10;59.40;;;;;;5014341;28;20169;-58
2022/07/12 05:14:52;;;;;;;0.75;0.75;;;21.10;59.40;;;;;;5014618;28;20180;-58
2022/07/12 05:17:17;;;;;;;1.10;1.00;;;21.10;59.40;;;;;;5015077;28;20256;-58
2022/07/12 05:19:43;;;;;;;0.82;0.80;;;21.10;59.40;;;;;;5014137;28;20173;-58
2022/07/12 05:22:09;;;;;;;0.88;0.88;;;21.10;59.40;;;;;;5014699;28;20484;-57
2022/07/12 05:24:34;;;;;;;0.68;0.68;;;21.10;59.40;;;;;;5014329;28;20181;-56
2022/07/12 05:27:00;;;;;;;1.55;0.70;;;21.10;59.40;;;;;;5014517;28;20185;-57
2022/07/12 05:29:26;;;;;;;1.00;0.90;;;21.10;59.40;;;;;;5014639;28;20173;-58
2022/07/12 05:31:55;;;;;;;0.65;0.63;;;21.10;59.40;;;;;;5013939;28;20173;-58
2022/07/12 05:34:20;;;;;;;0.90;0.90;;;21.10;59.40;;;;;;5014625;28;20651;-58
2022/07/12 05:36:46;;;;;;;1.15;0.77;;;21.10;59.40;;;;;;5014344;28;20176;-57
2022/07/12 05:39:11;;;;;;;0.95;0.70;;;21.10;59.50;;;;;;5013806;28;20212;-58
2022/07/12 05:41:37;;;;;;;1.15;0.90;;;21.20;59.60;;;;;;5014473;28;20191;-57
2022/07/12 05:44:02;;;;;;;0.52;0.52;;;21.10;59.60;;;;;;5014294;28;20215;-58
2022/07/12 05:46:28;;;;;;;0.73;0.70;;;21.10;59.50;;;;;;5013974;28;20180;-58
2022/07/12 05:48:54;;;;;;;1.42;1.10;;;21.20;59.60;;;;;;5014369;28;20169;-56
2022/07/12 05:54:07;;;;;;;0.85;0.85;;;21.10;59.60;;;;;;5013662;28;20259;-55
2022/07/12 05:56:32;;;;;;;0.93;0.80;;;21.10;59.60;;;;;;5014210;28;20184;-57
2022/07/12 05:58:58;;;;;;;0.70;0.70;;;21.10;59.70;;;;;;5014064;28;20177;-54
2022/07/12 06:01:24;;;;;;;0.75;0.75;;;21.10;59.70;;;;;;5013705;28;20184;-57
2022/07/12 06:03:49;;;;;;;0.80;0.80;;;21.10;59.80;;;;;;5013707;28;20294;-56
2022/07/12 06:06:15;;;;;;;0.98;0.95;;;21.10;59.70;;;;;;5014156;28;20180;-56
2022/07/12 06:08:41;;;;;;;1.00;0.90;;;21.10;59.70;;;;;;5013099;28;20199;-57
2022/07/12 06:11:06;;;;;;;0.60;0.60;;;21.20;59.60;;;;;;5013811;28;20168;-55
2022/07/12 06:13:32;;;;;;;0.70;0.70;;;21.20;59.60;;;;;;5013809;28;20173;-56
2022/07/12 06:15:57;;;;;;;0.80;0.70;;;21.20;59.90;;;;;;5012076;28;20583;-57
2022/07/12 06:18:23;;;;;;;0.73;0.73;;;21.30;59.60;;;;;;4996228;28;20230;-58
2022/07/12 06:20:48;;;;;;;1.95;0.82;;;21.30;59.80;;;;;;5013437;28;20169;-58
2022/07/12 06:23:14;;;;;;;1.27;0.90;;;21.30;60.00;;;;;;5013294;28;20894;-58
2022/07/12 06:25:40;;;;;;;0.60;0.60;;;21.30;60.00;;;;;;5013473;28;20605;-56
2022/07/12 06:28:05;;;;;;;3.15;0.98;;;21.30;59.80;;;;;;5013069;28;20248;-59
2022/07/12 06:30:31;;;;;;;7.00;1.45;;;21.30;59.90;;;;;;5013726;28;20223;-58
2022/07/12 06:32:56;;;;;;;2.90;0.80;;;21.30;60.40;;;;;;5013425;28;20216;-57
2022/07/12 06:35:22;;;;;;;3.55;1.25;;;21.30;60.40;;;;;;5012874;28;20271;-51
2022/07/12 06:37:47;;;;;;;3.78;0.82;;;21.40;60.60;;;;;;5013353;28;20253;-57
2022/07/12 06:40:16;;;;;;;4.47;1.20;;;21.40;60.30;;;;;;5013364;28;20650;-58
2022/07/12 06:42:42;;;;;;;8.60;1.75;;;21.40;60.20;;;;;;5012785;28;20223;-57
2022/07/12 06:45:09;;;;;;;4.55;1.27;;;21.30;60.10;;;;;;5013439;28;20256;-57
2022/07/12 06:47:34;;;;;;;4.05;1.20;;;21.40;60.10;;;;;;5013320;28;20190;-56
2022/07/12 06:50:00;;;;;;;3.15;1.10;;;21.30;60.10;;;;;;5012193;28;20267;-56
2022/07/12 06:52:25;;;;;;;7.00;1.20;;;21.30;60.10;;;;;;5013365;28;20253;-56
2022/07/12 06:54:51;;;;;;;0.95;0.93;;;21.30;60.20;;;;;;5012922;28;20653;-54
2022/07/12 06:57:16;;;;;;;4.93;1.02;;;21.30;60.10;;;;;;5012570;28;20172;-58
2022/07/12 06:59:42;;;;;;;6.63;1.20;;;21.30;60.10;;;;;;5013232;28;20562;-57
2022/07/12 07:02:07;;;;;;;3.35;1.00;;;21.30;60.10;;;;;;5013024;28;20596;-56
2022/07/12 07:04:33;;;;;;;1.52;1.02;;;21.30;60.20;;;;;;5012238;28;20780;-57
2022/07/12 07:06:58;;;;;;;5.47;1.17;;;21.30;60.20;;;;;;5012749;28;20188;-58
2022/07/12 07:09:24;;;;;;;1.48;1.00;;;21.30;60.30;;;;;;5012832;28;20177;-58
2022/07/12 07:11:49;;;;;;;1.90;0.90;;;21.30;60.30;;;;;;5012153;28;20183;-58
2022/07/12 07:14:15;;;;;;;1.08;0.88;;;21.40;60.50;;;;;;5012849;28;20187;-58
2022/07/12 07:16:40;;;;;;;2.65;1.20;;;21.40;60.60;;;;;;5012729;28;20187;-58
2022/07/12 07:19:06;;;;;;;2.60;0.80;;;21.40;60.60;;;;;;5011958;28;20515;-56
2022/07/12 07:21:31;;;;;;;6.25;1.10;;;21.40;60.50;;;;;;5012710;28;20165;-58
2022/07/12 07:23:57;;;;;;;1.77;0.95;;;21.40;60.40;;;;;;5012250;28;20288;-56
2022/07/12 07:26:22;;;;;;;2.15;0.90;;;21.40;60.30;;;;;;5011977;28;20172;-58
2022/07/12 07:31:36;;;;;;;3.17;1.00;;;21.50;60.20;;;;;;5011969;28;20202;-58
2022/07/12 07:34:02;;;;;;;4.38;1.20;;;21.50;60.10;;;;;;5012344;28;20717;-57
2022/07/12 07:36:27;;;;;;;3.75;1.00;;;21.50;60.10;;;;;;5012594;28;20238;-59
2022/07/12 07:38:53;;;;;;;1.17;1.00;;;21.50;60.00;;;;;;5011621;28;20177;-57
2022/07/12 07:41:18;;;;;;;1.20;1.00;;;21.50;60.00;;;;;;5012817;28;20204;-58
2022/07/12 07:43:44;;;;;;;1.35;1.00;;;21.50;60.00;;;;;;5012284;28;20638;-55
2022/07/12 07:46:10;;;;;;;1.50;1.10;;;21.50;60.00;;;;;;5011572;28;20595;-58
2022/07/12 07:48:35;;;;;;;0.82;0.70;;;21.50;60.00;;;;;;5012417;28;20185;-57
2022/07/12 07:51:00;;;;;;;3.30;1.15;;;21.60;60.10;;;;;;5011939;28;20176;-58
2022/07/12 07:53:26;;;;;;;0.80;0.80;;;21.60;60.20;;;;;;5011993;28;20169;-57
2022/07/12 07:55:51;;;;;;;1.45;0.90;;;21.50;60.10;;;;;;5012260;28;20535;-56
2022/07/12 07:58:17;;;;;;;1.45;1.00;;;21.50;60.10;;;;;;5012194;28;20191;-58
2022/07/12 08:00:43;;;;;;;1.08;1.00;;;21.50;60.20;;;;;;5011552;28;20533;-55
2022/07/12 08:03:08;;;;;;;0.85;0.80;;;21.50;60.20;;;;;;5012055;28;20212;-58
2022/07/12 08:05:34;;;;;;;1.17;1.02;;;21.50;60.20;;;;;;5011863;28;20228;-59
2022/07/12 08:07:59;;;;;;;5.18;1.42;;;21.50;60.20;;;;;;5011497;28;20539;-59
2022/07/12 08:10:25;;;;;;;4.97;0.93;;;21.60;60.50;;;;;;5012319;28;20260;-59
2022/07/12 08:12:51;;;;;;;5.10;1.23;;;21.60;60.40;;;;;;5012050;28;20180;-49
2022/07/12 08:15:16;;;;;;;7.40;2.90;;;21.70;60.20;;;;;;5011396;28;20176;-60
2022/07/12 08:17:42;;;;;;;2.63;1.40;;;21.70;61.60;;;;;;5011889;28;20175;-59
2022/07/12 08:20:08;;;;;;;3.00;1.30;;;21.70;60.90;;;;;;5012056;28;20185;-58
2022/07/12 08:22:33;;;;;;;3.50;1.65;;;21.70;60.80;;;;;;5011149;28;20208;-58
2022/07/12 08:24:59;;;;;;;2.72;1.58;;;21.70;61.00;;;;;;5011749;28;20177;-58
2022/07/12 08:27:24;;;;;;;5.80;2.17;;;21.60;61.10;;;;;;5012008;28;20169;-58
2022/07/12 08:29:50;;;;;;;3.22;1.20;;;21.60;61.10;;;;;;5011500;28;20238;-58
2022/07/12 08:32:15;;;;;;;2.85;1.35;;;21.60;61.00;;;;;;5012009;28;20545;-59
2022/07/12 08:34:41;;;;;;;3.40;1.10;;;21.70;61.10;;;;;;5011005;28;20172;-58
2022/07/12 08:37:06;;;;;;;3.10;1.25;;;21.70;61.00;;;;;;5012112;28;20231;-59
2022/07/12 08:39:32;;;;;;;2.85;1.10;;;21.70;61.00;;;;;;5015488;28;20211;-59
2022/07/12 08:41:57;;;;;;;1.10;0.95;;;21.70;61.00;;;;;;5014797;28;20176;-59
2022/07/12 08:44:23;;;;;;;1.20;1.10;;;21.70;61.10;;;;;;5015722;28;20243;-58
2022/07/12 08:46:48;;;;;;;1.10;1.00;;;21.70;61.00;;;;;;5015538;28;20179;-58
2022/07/12 08:49:14;;;;;;;2.60;1.20;;;21.70;61.00;;;;;;5014619;28;20584;-58
2022/07/12 08:51:39;;;;;;;2.85;1.40;;;21.70;61.00;;;;;;5015314;28;20283;-57
2022/07/12 08:54:09;;;;;;;2.38;1.20;;;21.70;61.00;;;;;;5015598;28;20180;-58
2022/07/12 08:56:37;;;;;;;1.35;1.05;;;21.70;61.00;;;;;;5014758;28;20178;-54
2022/07/12 08:59:14;;;;;;;5.97;1.70;;;21.70;61.00;;;;;;5015365;28;20182;-58
2022/07/12 09:01:41;;;;;;;1.95;1.10;;;21.70;61.00;;;;;;5015110;28;20176;-56
2022/07/12 09:04:20;;;;;;;1.13;0.98;;;21.60;60.90;;;;;;5014698;28;20315;-58
2022/07/12 09:06:46;;;;;;;2.05;0.82;;;21.80;61.00;;;;;;5015016;28;20536;-56
2022/07/12 09:09:11;;;;;;;8.07;1.65;;;21.80;60.90;;;;;;5015098;28;20173;-59
2022/07/12 09:11:38;;;;;;;5.57;1.15;;;21.80;61.20;;;;;;5014651;28;20673;-58
2022/07/12 09:14:04;;;;;;;3.70;1.13;;;21.80;60.80;;;;;;5015034;28;20246;-59
2022/07/12 09:16:29;;;;;;;4.82;1.10;;;21.80;60.80;;;;;;5015110;28;20176;-57
2022/07/12 09:19:19;;;;;;;2.78;1.30;;;21.90;60.80;;;;;;5014049;28;20180;-57
2022/07/12 09:21:54;;;;;;;2.28;1.23;;;21.90;60.90;;;;;;5014890;28;20191;-56
2022/07/12 09:24:26;;;;;;;2.55;1.05;;;21.90;60.90;;;;;;5014075;28;20221;-56
2022/07/12 09:27:05;;;;;;;2.22;1.13;;;21.90;60.90;;;;;;5014515;28;20180;-55
2022/07/12 09:29:32;;;;;;;2.53;1.25;;;22.00;60.90;;;;;;5014830;28;20270;-58
2022/07/12 09:37:26;;;;;;;3.63;1.08;;;22.00;61.00;;;;;;5014755;28;20195;-58
2022/07/12 09:39:53;;;;;;;2.95;0.93;;;22.00;61.00;;;;;;4996437;28;20635;-56
2022/07/12 09:42:19;;;;;;;3.42;1.20;;;22.00;61.00;;;;;;5014516;28;20188;-58
2022/07/12 09:44:45;;;;;;;1.65;1.05;;;22.10;61.10;;;;;;4996876;28;20307;-56
2022/07/12 09:47:13;;;;;;;1.25;1.10;;;22.10;61.00;;;;;;4995469;28;20196;-58
2022/07/12 09:49:39;;;;;;;3.33;1.17;;;22.10;61.00;;;;;;5013974;28;20195;-54
2022/07/12 09:52:05;;;;;;;3.80;1.20;;;22.10;61.00;;;;;;5013357;28;20188;-55
2022/07/12 09:54:30;;;;;;;1.60;0.98;;;22.10;61.00;;;;;;5014156;28;20188;-58
2022/07/12 09:56:59;;;;;;;3.08;1.27;;;22.10;60.90;;;;;;4980369;28;20177;-58
2022/07/12 09:59:27;;;;;;;1.35;0.75;;;22.10;60.90;;;;;;5013568;28;20180;-56
2022/07/12 10:01:55;;;;;;;4.25;1.13;;;22.10;60.90;;;;;;5013838;28;20183;-55
2022/07/12 10:04:21;;;;;;;0.70;0.70;;;22.10;60.80;;;;;;5013827;28;20240;-57
2022/07/12 10:06:47;;;;;;;1.08;0.98;;;22.10;60.80;;;;;;5013172;28;20180;-59
2022/07/12 10:09:12;;;;;;;1.95;1.10;;;22.10;60.80;;;;;;5013948;28;20207;-59
2022/07/12 10:11:38;;;;;;;1.83;1.00;;;22.20;60.80;;;;;;4980116;28;20222;-58
2022/07/12 10:14:03;;;;;;;2.80;1.27;;;22.20;60.80;;;;;;4995725;28;20200;-58
2022/07/12 10:16:29;;;;;;;3.20;1.05;;;22.20;60.70;;;;;;4996437;28;20264;-58
2022/07/12 10:19:26;;;;;;;2.00;1.10;;;22.20;60.70;;;;;;5013620;28;20234;-59
2022/07/12 10:21:55;;;;;;;3.75;0.98;;;22.20;60.60;;;;;;5012989;28;20193;-57
2022/07/12 10:24:33;;;;;;;3.00;1.08;;;22.20;60.60;;;;;;5013598;28;20226;-58
2022/07/12 10:26:59;;;;;;;1.83;1.10;;;22.20;60.50;;;;;;5013221;28;20185;-57
2022/07/12 10:29:25;;;;;;;0.82;0.82;;;22.30;60.60;;;;;;5013301;28;20183;-58
2022/07/12 10:31:51;;;;;;;1.50;1.00;;;22.30;60.50;;;;;;4996226;28;20180;-58
2022/07/12 10:34:23;;;;;;;1.45;0.90;;;22.30;60.50;;;;;;5013001;28;20239;-58
2022/07/12 10:36:55;;;;;;;1.95;0.95;;;22.30;60.50;;;;;;5013616;28;20203;-58
2022/07/12 10:39:24;;;;;;;3.47;1.33;;;22.30;60.50;;;;;;5013460;28;20191;-59
2022/07/12 10:42:05;;;;;;;1.17;1.08;;;22.30;60.50;;;;;;5012518;28;20176;-55
2022/07/12 10:44:41;;;;;;;1.60;1.00;;;22.30;60.60;;;;;;5013327;28;20585;-59
2022/07/12 10:47:07;;;;;;;2.83;1.08;;;22.30;60.50;;;;;;5013257;28;20670;-58
2022/07/12 10:49:33;;;;;;;2.72;1.23;;;22.30;60.50;;;;;;5012824;28;20180;-58
2022/07/12 10:52:11;;;;;;;1.10;1.00;;;22.40;60.60;;;;;;5013041;28;20172;-58
2022/07/12 10:54:37;;;;;;;4.45;1.17;;;22.40;60.60;;;;;;5013450;28;20211;-57
2022/07/12 10:57:03;;;;;;;2.50;1.33;;;22.40;60.50;;;;;;5012567;28;20270;-58
2022/07/12 10:59:29;;;;;;;1.88;1.08;;;22.50;60.60;;;;;;5013322;28;20563;-59
2022/07/12 11:01:55;;;;;;;1.45;0.90;;;22.40;60.60;;;;;;5012486;28;20181;-58
2022/07/12 11:04:21;;;;;;;2.42;1.50;;;22.50;60.60;;;;;;5012246;28;20247;-59
2022/07/12 11:06:47;;;;;;;3.45;1.20;;;22.50;60.60;;;;;;5012687;28;20541;-59
2022/07/12 11:09:12;;;;;;;5.45;1.23;;;22.50;60.50;;;;;;5012424;28;20514;-59
2022/07/12 11:11:45;;;;;;;1.42;1.05;;;22.50;60.50;;;;;;5013030;28;20173;-58
2022/07/12 11:14:12;;;;;;;2.75;1.27;;;22.60;60.60;;;;;;5012981;28;20208;-58
2022/07/12 11:16:49;;;;;;;1.73;1.42;;;22.50;60.60;;;;;;5012296;28;20550;-59
2022/07/12 11:19:15;;;;;;;2.42;0.90;;;22.50;60.60;;;;;;5012672;28;20203;-58
2022/07/12 11:21:46;;;;;;;1.98;1.33;;;22.60;60.60;;;;;;5012621;28;20173;-57
2022/07/12 11:24:19;;;;;;;1.92;1.13;;;22.50;60.50;;;;;;5012124;28;20220;-58
2022/07/12 11:26:47;;;;;;;4.00;1.10;;;22.60;60.50;;;;;;4995008;28;20227;-58
2022/07/12 11:29:12;;;;;;;2.47;1.00;;;22.60;60.50;;;;;;5012582;28;20571;-56
2022/07/12 11:31:38;;;;;;;6.00;1.40;;;22.60;60.40;;;;;;4994060;28;20208;-55
2022/07/12 11:34:03;;;;;;;4.45;1.00;;;22.60;60.40;;;;;;5012451;28;20265;-56
2022/07/12 11:36:29;;;;;;;1.25;1.13;;;22.60;60.50;;;;;;5012804;28;20608;-54
2022/07/12 11:38:55;;;;;;;3.55;1.10;;;22.60;60.50;;;;;;5011513;28;20601;-53
2022/07/12 11:41:22;;;;;;;2.90;1.10;;;22.60;60.50;;;;;;5012500;28;20187;-57
2022/07/12 11:43:48;;;;;;;3.17;1.02;;;22.60;60.50;;;;;;5012144;28;20230;-53
2022/07/12 11:46:13;;;;;;;2.15;1.20;;;22.60;60.60;;;;;;5011598;28;20631;-51
2022/07/12 11:48:41;;;;;;;1.80;1.17;;;22.60;60.60;;;;;;5012550;28;20498;-53
2022/07/12 11:51:09;;;;;;;3.60;1.40;;;22.60;60.70;;;;;;4995168;28;20183;-53
2022/07/12 11:53:36;;;;;;;1.65;1.17;;;22.60;60.80;;;;;;5011901;28;20172;-52
2022/07/12 11:56:02;;;;;;;1.95;1.15;;;22.60;60.60;;;;;;5012138;28;20184;-54
2022/07/12 11:58:28;;;;;;;1.20;1.10;;;22.60;60.80;;;;;;5011555;28;20596;-51
2022/07/12 12:00:54;;;;;;;1.38;1.20;;;22.70;60.70;;;;;;5012076;28;20686;-54
2022/07/12 12:03:20;;;;;;;1.98;1.05;;;22.80;60.70;;;;;;5012334;28;20632;-51
2022/07/12 12:05:56;;;;;;;1.10;1.00;;;22.70;60.50;;;;;;5011235;28;20359;-54
2022/07/12 12:08:21;;;;;;;2.67;1.00;;;22.70;61.30;;;;;;5012419;28;20310;-54
2022/07/12 12:10:59;;;;;;;2.63;0.98;;;22.80;60.50;;;;;;5012014;28;20614;-57
2022/07/12 12:13:26;;;;;;;1.25;0.98;;;22.80;60.50;;;;;;5013181;28;20176;-56
2022/07/12 12:15:53;;;;;;;0.77;0.77;;;22.80;60.50;;;;;;5016057;28;20534;-54
2022/07/12 12:18:40;;;;;;;1.55;1.20;;;22.80;60.40;;;;;;5016176;28;20183;-57
2022/07/12 12:21:07;;;;;;;0.90;0.90;;;22.80;60.20;;;;;;5015466;28;20180;-54
2022/07/12 12:23:33;;;;;;;1.10;0.90;;;22.90;60.20;;;;;;5015916;28;20212;-57
2022/07/12 12:26:30;;;;;;;1.05;0.80;;;22.90;60.20;;;;;;5015620;28;20262;-56
2022/07/12 12:28:55;;;;;;;1.17;1.00;;;22.90;60.10;;;;;;5006835;28;20192;-55
2022/07/12 12:31:22;;;;;;;2.00;1.08;;;22.90;60.10;;;;;;5016005;28;20183;-54
2022/07/12 12:33:56;;;;;;;1.20;1.10;;;22.90;60.00;;;;;;5015108;28;20188;-53
2022/07/12 12:36:24;;;;;;;1.30;1.20;;;22.90;59.90;;;;;;5015775;28;20223;-55
2022/07/12 12:38:51;;;;;;;1.38;1.00;;;22.90;59.90;;;;;;5015731;28;20644;-55
2022/07/12 12:41:17;;;;;;;0.82;0.82;;;22.90;59.90;;;;;;5015131;28;20176;-56
2022/07/12 12:43:42;;;;;;;0.75;0.75;;;23.00;59.90;;;;;;5015421;28;20262;-52
2022/07/12 12:46:08;;;;;;;1.23;1.13;;;23.00;59.80;;;;;;5015542;28;20179;-57
2022/07/12 12:48:34;;;;;;;1.35;1.02;;;23.00;59.80;;;;;;5014990;28;20175;-54
2022/07/12 12:51:11;;;;;;;1.38;1.00;;;23.00;59.80;;;;;;5015222;28;20647;-55
2022/07/12 12:53:39;;;;;;;2.53;0.93;;;23.00;59.70;;;;;;5015764;28;20188;-53
2022/07/12 12:56:09;;;;;;;2.67;1.30;;;23.00;59.70;;;;;;5014908;28;20505;-55
2022/07/12 12:58:35;;;;;;;3.63;1.20;;;23.00;59.60;;;;;;5015371;28;20858;-55